Sea Lion — WUV3542 — position and weather

sailwx.info

Track history (hours):
 
Tides and Currents Weather Stations Pressure Air Temp Water Temp Dewpoint Dewpoint Depression Visibility Wind Speed Wind Dir Waves Ship Positions

Sea Lion

Owner: SEA WOLF MARINE INC, Bayonne, NJ. More information available from US FCC via Universal Licensing System and Coast Guard Vessel Documentation Center.

Last reported at 2017-Oct-17 13:00 UTC. Time now 2017-Oct-17 13:10 UTC.
Position N 40°42' W 074°03'.

Length 20 m; draft 3 m.

Type: Towing. MMSI: 367000930.

Date/timePositionNaut miles runAvg speedWind from/ knotsBaromVisibWave heightAir tempDewpointWater temp
2017-Oct-17 13:00N 40°42' W 074°03'0 0.0
2017-Oct-17 12:29N 40°42' W 074°03'0 0.0
2017-Oct-17 11:59N 40°42' W 074°03'1 2.6
2017-Oct-17 11:30N 40°41' W 074°04'1 1.2
2017-Oct-17 11:00N 40°41' W 074°05'0 0.0
2017-Oct-17 10:30N 40°41' W 074°05'0 0.1
2017-Oct-17 10:00N 40°41' W 074°05'0 0.0
2017-Oct-17 09:30N 40°41' W 074°05'0 0.0
2017-Oct-17 09:00N 40°41' W 074°05'0 0.0
2017-Oct-17 08:30N 40°41' W 074°05'0 0.0
2017-Oct-17 08:00N 40°41' W 074°05'0 0.0
2017-Oct-17 07:30N 40°41' W 074°05'0 0.0
2017-Oct-17 07:00N 40°41' W 074°05'0 0.0
2017-Oct-17 06:30N 40°41' W 074°05'0 0.0
2017-Oct-17 06:00N 40°41' W 074°05'0 0.0
2017-Oct-17 05:30N 40°41' W 074°05'0 0.0
2017-Oct-17 05:00N 40°41' W 074°05'0 0.0
2017-Oct-17 04:30N 40°41' W 074°05'0 0.0
2017-Oct-17 04:00N 40°41' W 074°05'0 0.0
2017-Oct-17 03:30N 40°41' W 074°05'0 0.0
2017-Oct-17 03:00N 40°41' W 074°05'0 0.0
2017-Oct-17 02:30N 40°41' W 074°05'0 0.0
2017-Oct-17 02:00N 40°41' W 074°05'0 0.0
2017-Oct-17 01:30N 40°41' W 074°05'0 0.0
2017-Oct-17 01:00N 40°41' W 074°05'0 0.0
2017-Oct-17 00:30N 40°41' W 074°05'0 0.0
2017-Oct-17 00:00N 40°41' W 074°05'0 0.0
2017-Oct-16 23:30N 40°41' W 074°05'0 0.0
2017-Oct-16 23:00N 40°41' W 074°05'0 0.0
2017-Oct-16 22:30N 40°41' W 074°05'0 0.3
2017-Oct-16 21:59N 40°41' W 074°04'2 4.5
2017-Oct-16 21:30N 40°40' W 074°02'1 2.1
2017-Oct-16 21:00N 40°40' W 074°01'0 0.1
2017-Oct-16 20:30N 40°40' W 074°01'3 6.4
2017-Oct-16 20:00N 40°41' W 074°04'0 0.4
2017-Oct-16 19:29N 40°41' W 074°05'0 0.0
2017-Oct-16 18:56N 40°41' W 074°05'0 0.0
2017-Oct-16 18:29N 40°41' W 074°05'0 0.0
2017-Oct-16 17:59N 40°41' W 074°05'0 0.0
2017-Oct-16 17:29N 40°41' W 074°05'0 0.0
2017-Oct-16 16:59N 40°41' W 074°05'0 0.0
2017-Oct-16 16:29N 40°41' W 074°05'0 0.2
2017-Oct-16 15:59N 40°41' W 074°05'0 0.0
2017-Oct-16 15:30N 40°41' W 074°05'0 0.1
2017-Oct-16 14:55N 40°41' W 074°05'0 0.0
2017-Oct-16 13:59N 40°41' W 074°05'0 0.0
2017-Oct-16 13:29N 40°41' W 074°05'0 0.0
2017-Oct-16 12:56N 40°41' W 074°05'0 0.0
2017-Oct-16 12:23N 40°41' W 074°05'0 0.0
2017-Oct-16 11:59N 40°41' W 074°05'0 0.0
2017-Oct-16 11:29N 40°41' W 074°05'0 0.0
2017-Oct-16 10:59N 40°41' W 074°05'0 0.0
2017-Oct-16 10:29N 40°41' W 074°05'0 0.0
2017-Oct-16 09:59N 40°41' W 074°05'0 0.0
2017-Oct-16 09:29N 40°41' W 074°05'0 0.0
2017-Oct-16 08:59N 40°41' W 074°05'0 0.0
2017-Oct-16 08:26N 40°41' W 074°05'0 0.0
2017-Oct-16 07:59N 40°41' W 074°05'0 0.0
2017-Oct-16 07:29N 40°41' W 074°05'0 0.0
2017-Oct-16 06:59N 40°41' W 074°05'0 0.0
2017-Oct-16 06:29N 40°41' W 074°05'0 0.0
2017-Oct-16 05:59N 40°41' W 074°05'0 0.0
2017-Oct-16 05:29N 40°41' W 074°05'0 0.0
2017-Oct-16 04:59N 40°41' W 074°05'0 0.0
2017-Oct-16 04:29N 40°41' W 074°05'0 0.0
2017-Oct-16 03:59N 40°41' W 074°05'0 0.0
2017-Oct-16 03:29N 40°41' W 074°05'0 0.0
2017-Oct-16 02:59N 40°41' W 074°05'0 0.0
2017-Oct-16 02:29N 40°41' W 074°05'0 0.0
2017-Oct-16 01:59N 40°41' W 074°05'0 0.0
2017-Oct-16 01:29N 40°41' W 074°05'0 0.0
2017-Oct-16 00:59N 40°41' W 074°05'0 0.0
2017-Oct-16 00:29N 40°41' W 074°05'0 0.0
2017-Oct-15 23:59N 40°41' W 074°05'0 0.0
2017-Oct-15 23:26N 40°41' W 074°05'0 0.0
2017-Oct-15 22:59N 40°41' W 074°05'0 0.0
2017-Oct-15 22:29N 40°41' W 074°05'0 0.0
2017-Oct-15 21:59N 40°41' W 074°05'0 0.0
2017-Oct-15 21:30N 40°41' W 074°05'0 0.0
2017-Oct-15 21:00N 40°41' W 074°05'0 0.0
2017-Oct-15 20:24N 40°41' W 074°05'0 0.0
2017-Oct-15 20:00N 40°41' W 074°05'0 0.0
2017-Oct-15 19:30N 40°41' W 074°05'0 0.0
2017-Oct-15 19:00N 40°41' W 074°05'0 0.0
2017-Oct-15 18:30N 40°41' W 074°05'0 0.0
2017-Oct-15 18:00N 40°41' W 074°05'0 0.0
2017-Oct-15 17:30N 40°41' W 074°05'0 0.0
2017-Oct-15 17:00N 40°41' W 074°05'0 0.0
2017-Oct-15 16:30N 40°41' W 074°05'0 0.0
2017-Oct-15 16:00N 40°41' W 074°05'0 0.0
2017-Oct-15 15:30N 40°41' W 074°05'0 0.0
2017-Oct-15 15:00N 40°41' W 074°05'0 0.0
2017-Oct-15 14:00N 40°41' W 074°05'0 0.0
2017-Oct-15 13:27N 40°41' W 074°05'0 0.0
2017-Oct-15 12:58N 40°41' W 074°05'0 0.0
2017-Oct-15 12:30N 40°41' W 074°05'0 0.0
2017-Oct-15 12:00N 40°41' W 074°05'0 0.0
2017-Oct-15 11:30N 40°41' W 074°05'0 0.0
2017-Oct-15 11:00N 40°41' W 074°05'0 0.0
2017-Oct-15 10:30N 40°41' W 074°05'0 0.0
2017-Oct-15 10:00N 40°41' W 074°05'0 0.0
2017-Oct-15 09:30N 40°41' W 074°05'0 0.0
2017-Oct-15 09:00N 40°41' W 074°05'0 0.0
2017-Oct-15 08:30N 40°41' W 074°05'0 0.0
2017-Oct-15 08:00N 40°41' W 074°05'0 0.0
2017-Oct-15 07:30N 40°41' W 074°05'0 0.0
2017-Oct-15 07:00N 40°41' W 074°05'0 0.0
2017-Oct-15 06:30N 40°41' W 074°05'0 0.0
2017-Oct-15 06:00N 40°41' W 074°05'0 0.0
2017-Oct-15 05:30N 40°41' W 074°05'0 0.0
2017-Oct-15 05:00N 40°41' W 074°05'0 0.0
2017-Oct-15 04:30N 40°41' W 074°05'0 0.0
2017-Oct-15 04:00N 40°41' W 074°05'0 0.0
2017-Oct-15 03:30N 40°41' W 074°05'0 0.0
2017-Oct-15 03:00N 40°41' W 074°05'0 0.0
2017-Oct-15 02:30N 40°41' W 074°05'0 0.0
2017-Oct-15 02:00N 40°41' W 074°05'0 0.0
2017-Oct-15 01:30N 40°41' W 074°05'0 0.0
2017-Oct-15 01:00N 40°41' W 074°05'0 0.0
2017-Oct-15 00:27N 40°41' W 074°05'0 0.0
2017-Oct-15 00:00N 40°41' W 074°05'0 0.0
2017-Oct-14 23:30N 40°41' W 074°05'0 0.0
2017-Oct-14 23:00N 40°41' W 074°05'0 0.0
2017-Oct-14 22:30N 40°41' W 074°05'0 0.0
2017-Oct-14 21:57N 40°41' W 074°05'0 0.0
2017-Oct-14 21:30N 40°41' W 074°05'0 0.0
2017-Oct-14 21:00N 40°41' W 074°05'0 0.0
2017-Oct-14 20:30N 40°41' W 074°05'0 0.0
2017-Oct-14 20:01N 40°41' W 074°05'0 0.6
2017-Oct-14 19:30N 40°41' W 074°04'3 5.0
2017-Oct-14 19:00N 40°39' W 074°06'3 5.9
2017-Oct-14 18:30N 40°39' W 074°10'3 6.1
2017-Oct-14 18:00N 40°36' W 074°12'0 0.2
2017-Oct-14 17:12N 40°36' W 074°12'2 8.9
2017-Oct-14 17:00N 40°38' W 074°12'4 7.9
2017-Oct-14 16:29N 40°39' W 074°07'3 5.5
2017-Oct-14 15:59N 40°41' W 074°05'0 0.0
2017-Oct-14 15:29N 40°41' W 074°05'0 0.0
2017-Oct-14 14:53N 40°41' W 074°05'0 0.0
2017-Oct-14 14:29N 40°41' W 074°05'0 0.0
2017-Oct-14 13:56N 40°41' W 074°05'0 0.0
2017-Oct-14 13:29N 40°41' W 074°05'0 0.0
2017-Oct-14 12:56N 40°41' W 074°05'0 0.0
2017-Oct-14 12:29N 40°41' W 074°05'0 0.0
2017-Oct-14 11:53N 40°41' W 074°05'0 0.0
2017-Oct-14 11:29N 40°41' W 074°05'0 0.0
2017-Oct-14 10:59N 40°41' W 074°05'0 0.0
2017-Oct-14 10:29N 40°41' W 074°05'0 0.0
2017-Oct-14 09:47N 40°41' W 074°05'0 0.0
2017-Oct-14 09:29N 40°41' W 074°05'0 0.0
2017-Oct-14 08:56N 40°41' W 074°05'0 0.0
2017-Oct-14 08:26N 40°41' W 074°05'0 0.0
2017-Oct-14 07:53N 40°41' W 074°05'0 0.0
2017-Oct-14 07:29N 40°41' W 074°05'0 0.0
2017-Oct-14 06:59N 40°41' W 074°05'0 0.0
2017-Oct-14 06:17N 40°41' W 074°05'0 0.0
2017-Oct-14 05:59N 40°41' W 074°05'0 0.0
2017-Oct-14 05:14N 40°41' W 074°05'0 0.0
2017-Oct-14 04:59N 40°41' W 074°05'0 0.0
2017-Oct-14 04:29N 40°41' W 074°05'0 0.0
2017-Oct-14 03:56N 40°41' W 074°05'0 0.0
2017-Oct-14 03:29N 40°41' W 074°05'0 0.0
2017-Oct-14 02:59N 40°41' W 074°05'0 0.0
2017-Oct-14 02:29N 40°41' W 074°05'0 0.0
2017-Oct-14 01:56N 40°41' W 074°05'0 0.0
2017-Oct-14 01:29N 40°41' W 074°05'0 0.0
2017-Oct-14 00:59N 40°41' W 074°05'0 0.4
2017-Oct-14 00:30N 40°41' W 074°04'1 1.1
2017-Oct-14 00:00N 40°41' W 074°04'3 5.2
2017-Oct-13 23:30N 40°40' W 074°01'4 7.1
2017-Oct-13 23:00N 40°43' W 073°58'2 3.6
2017-Oct-13 22:28N 40°44' W 073°57'0 0.6
2017-Oct-13 22:00N 40°44' W 073°57'3 5.1
2017-Oct-13 21:30N 40°42' W 073°59'3 6.8
2017-Oct-13 21:00N 40°40' W 074°03'2 3.1
2017-Oct-13 20:29N 40°41' W 074°05'0 0.0
2017-Oct-13 19:56N 40°41' W 074°05'0 0.0
2017-Oct-13 19:26N 40°41' W 074°05'0 0.0
2017-Oct-13 18:56N 40°41' W 074°05'0 0.0
2017-Oct-13 18:23N 40°41' W 074°05'0 0.0
2017-Oct-13 17:56N 40°41' W 074°05'0 0.0
2017-Oct-13 17:29N 40°41' W 074°05'0 0.0
2017-Oct-13 16:59N 40°41' W 074°05'0 0.0
2017-Oct-13 16:29N 40°41' W 074°05'0 0.0
2017-Oct-13 15:59N 40°41' W 074°05'0 0.0
2017-Oct-13 15:26N 40°41' W 074°05'0 0.0
2017-Oct-13 14:59N 40°41' W 074°05'0 0.0
2017-Oct-13 14:29N 40°41' W 074°05'0 0.4
2017-Oct-13 14:00N 40°41' W 074°04'1 2.6
2017-Oct-13 13:29N 40°42' W 074°03'0 0.0
2017-Oct-13 12:59N 40°42' W 074°03'0 0.0
2017-Oct-13 12:23N 40°42' W 074°03'0 0.0
2017-Oct-13 11:59N 40°42' W 074°03'1 2.4
2017-Oct-13 11:30N 40°40' W 074°04'1 2.1
2017-Oct-13 10:58N 40°41' W 074°05'0 0.0
2017-Oct-13 10:30N 40°41' W 074°05'0 0.0
2017-Oct-13 09:58N 40°41' W 074°05'0 0.0
2017-Oct-13 09:28N 40°41' W 074°05'0 0.0
2017-Oct-13 08:40N 40°41' W 074°05'0 0.0
2017-Oct-13 08:25N 40°41' W 074°05'0 0.0
2017-Oct-13 07:55N 40°41' W 074°05'0 0.0
2017-Oct-13 07:28N 40°41' W 074°05'0 0.0
2017-Oct-13 06:49N 40°41' W 074°05'0 0.0
2017-Oct-13 06:28N 40°41' W 074°05'0 0.0
2017-Oct-13 05:58N 40°41' W 074°05'0 0.0
2017-Oct-13 05:28N 40°41' W 074°05'0 0.0
2017-Oct-13 04:52N 40°41' W 074°05'0 0.0
2017-Oct-13 04:28N 40°41' W 074°05'0 0.0
2017-Oct-13 03:58N 40°41' W 074°05'0 0.0
2017-Oct-13 03:19N 40°41' W 074°05'0 0.0
2017-Oct-13 02:58N 40°41' W 074°05'0 0.0
2017-Oct-13 02:28N 40°41' W 074°05'0 0.0
2017-Oct-13 01:55N 40°41' W 074°05'0 0.0
2017-Oct-13 01:28N 40°41' W 074°05'0 0.0
2017-Oct-13 00:43N 40°41' W 074°05'0 0.8
2017-Oct-13 00:30N 40°41' W 074°04'3 5.8
2017-Oct-13 00:00N 40°42' W 074°01'4 7.6
2017-Oct-12 23:30N 40°44' W 073°57'0 0.0
2017-Oct-12 23:00N 40°44' W 073°57'2 4.4
2017-Oct-12 22:30N 40°43' W 073°59'2 4.7
2017-Oct-12 22:00N 40°41' W 074°01'3 4.7
2017-Oct-12 21:26N 40°41' W 074°05'0 0.3
2017-Oct-12 20:56N 40°41' W 074°05'0 0.0
2017-Oct-12 20:23N 40°41' W 074°05'0 0.0
2017-Oct-12 19:59N 40°41' W 074°05'0 0.0
2017-Oct-12 19:20N 40°41' W 074°05'0 0.0
2017-Oct-12 18:59N 40°41' W 074°05'0 0.0
2017-Oct-12 18:29N 40°41' W 074°05'0 0.0
2017-Oct-12 17:50N 40°41' W 074°05'0 0.0
2017-Oct-12 17:26N 40°41' W 074°05'0 0.0
2017-Oct-12 16:59N 40°41' W 074°05'0 0.0
2017-Oct-12 16:29N 40°41' W 074°05'0 0.0
2017-Oct-12 15:56N 40°41' W 074°05'0 0.0
2017-Oct-12 15:29N 40°41' W 074°05'0 0.0
2017-Oct-12 14:53N 40°41' W 074°05'0 0.0
2017-Oct-12 14:29N 40°41' W 074°05'2 3.1
2017-Oct-12 14:00N 40°41' W 074°03'0 0.7
2017-Oct-12 13:24N 40°42' W 074°03'0 0.0
2017-Oct-12 13:00N 40°42' W 074°03'0 0.0
2017-Oct-12 12:30N 40°42' W 074°03'0 0.0
2017-Oct-12 12:00N 40°42' W 074°03'1 2.6
2017-Oct-12 11:31N 40°41' W 074°04'1 1.1
2017-Oct-12 10:58N 40°41' W 074°05'0 0.0
2017-Oct-12 10:28N 40°41' W 074°05'0 0.0
2017-Oct-12 09:58N 40°41' W 074°05'0 0.0
2017-Oct-12 09:28N 40°41' W 074°05'0 0.0
2017-Oct-12 08:58N 40°41' W 074°05'0 0.0
2017-Oct-12 08:28N 40°41' W 074°05'0 0.0
2017-Oct-12 07:58N 40°41' W 074°05'0 0.0
2017-Oct-12 07:28N 40°41' W 074°05'0 0.0
2017-Oct-12 06:58N 40°41' W 074°05'0 0.0
2017-Oct-12 06:28N 40°41' W 074°05'0 0.0
2017-Oct-12 05:58N 40°41' W 074°05'0 0.0
2017-Oct-12 05:28N 40°41' W 074°05'0 0.0
2017-Oct-12 04:58N 40°41' W 074°05'0 0.0
2017-Oct-12 04:28N 40°41' W 074°05'0 0.0
2017-Oct-12 03:55N 40°41' W 074°05'0 0.0
2017-Oct-12 03:28N 40°41' W 074°05'0 0.0
2017-Oct-12 02:58N 40°41' W 074°05'0 0.0
2017-Oct-12 02:28N 40°41' W 074°05'0 0.0
2017-Oct-12 01:55N 40°41' W 074°05'0 0.0
2017-Oct-12 01:28N 40°41' W 074°05'0 0.0
2017-Oct-12 00:58N 40°41' W 074°05'0 0.0
2017-Oct-12 00:25N 40°41' W 074°05'0 0.0
2017-Oct-11 23:55N 40°41' W 074°05'0 0.0
2017-Oct-11 23:28N 40°41' W 074°05'0 0.0
2017-Oct-11 22:58N 40°41' W 074°05'0 0.0
2017-Oct-11 22:22N 40°41' W 074°05'0 0.0
2017-Oct-11 21:46N 40°41' W 074°05'0 0.0
2017-Oct-11 21:28N 40°41' W 074°05'0 0.0
2017-Oct-11 20:52N 40°41' W 074°05'0 0.0
2017-Oct-11 20:28N 40°41' W 074°05'0 0.0
2017-Oct-11 19:58N 40°41' W 074°05'0 0.0
2017-Oct-11 19:28N 40°41' W 074°05'0 0.0
2017-Oct-11 18:58N 40°41' W 074°05'0 0.0
2017-Oct-11 18:22N 40°41' W 074°05'0 0.0
2017-Oct-11 17:55N 40°41' W 074°05'0 0.0
2017-Oct-11 17:28N 40°41' W 074°05'0 0.0
2017-Oct-11 16:55N 40°41' W 074°05'0 0.0
2017-Oct-10 23:58N 40°41' W 074°05'0 0.0
2017-Oct-10 23:28N 40°41' W 074°05'0 0.0
2017-Oct-10 22:55N 40°41' W 074°05'0 0.0
2017-Oct-10 22:28N 40°41' W 074°05'0 0.0
2017-Oct-10 21:58N 40°41' W 074°05'0 0.0
2017-Oct-10 21:22N 40°41' W 074°05'0 0.0
2017-Oct-10 20:58N 40°41' W 074°05'0 0.0
2017-Oct-10 20:28N 40°41' W 074°05'0 0.0
2017-Oct-10 19:58N 40°41' W 074°05'0 0.0
2017-Oct-10 19:28N 40°41' W 074°05'0 0.0
2017-Oct-10 18:58N 40°41' W 074°05'0 0.0
2017-Oct-10 18:25N 40°41' W 074°05'0 0.0
2017-Oct-10 17:58N 40°41' W 074°05'0 0.0
2017-Oct-10 17:28N 40°41' W 074°05'0 0.0
2017-Oct-10 16:58N 40°41' W 074°05'0 0.3
2017-Oct-10 16:31N 40°41' W 074°04'3 5.2
2017-Oct-10 16:00N 40°40' W 074°01'1 1.4
2017-Oct-10 15:30N 40°40' W 074°01'1 2.9
2017-Oct-10 15:00N 40°40' W 074°02'1 1.5
2017-Oct-10 14:00N 40°42' W 074°02'0 0.5
2017-Oct-10 13:29N 40°42' W 074°03'0 0.0
2017-Oct-10 12:59N 40°42' W 074°03'0 0.5
2017-Oct-10 12:30N 40°42' W 074°02'2 3.2
2017-Oct-10 11:58N 40°41' W 074°05'0 0.0
2017-Oct-10 11:28N 40°41' W 074°05'0 0.0
2017-Oct-10 10:58N 40°41' W 074°05'0 0.0
2017-Oct-10 10:28N 40°41' W 074°05'0 0.0
2017-Oct-10 09:55N 40°41' W 074°05'0 0.0
2017-Oct-10 09:28N 40°41' W 074°05'0 0.0
2017-Oct-10 08:58N 40°41' W 074°05'0 0.0
2017-Oct-10 08:28N 40°41' W 074°05'0 0.0
2017-Oct-10 07:58N 40°41' W 074°05'0 0.0
2017-Oct-10 07:28N 40°41' W 074°05'0 0.0
2017-Oct-10 06:58N 40°41' W 074°05'0 0.0
2017-Oct-10 06:25N 40°41' W 074°05'0 0.0
2017-Oct-10 05:58N 40°41' W 074°05'0 0.0
2017-Oct-10 05:25N 40°41' W 074°05'0 0.0
2017-Oct-10 04:58N 40°41' W 074°05'0 0.0
2017-Oct-10 04:28N 40°41' W 074°05'0 0.0
2017-Oct-10 03:55N 40°41' W 074°05'0 0.0
2017-Oct-10 03:25N 40°41' W 074°05'0 0.0
2017-Oct-10 02:58N 40°41' W 074°05'0 0.0
2017-Oct-10 02:28N 40°41' W 074°05'0 0.0
2017-Oct-10 01:58N 40°41' W 074°05'0 0.0
2017-Oct-10 01:28N 40°41' W 074°05'0 0.0
2017-Oct-10 00:55N 40°41' W 074°05'0 0.0
2017-Oct-10 00:28N 40°41' W 074°05'0 0.0
2017-Oct-09 23:58N 40°41' W 074°05'0 0.0
2017-Oct-09 23:22N 40°41' W 074°05'0 0.0
2017-Oct-09 22:58N 40°41' W 074°05'0 0.0
2017-Oct-09 22:28N 40°41' W 074°05'0 0.0
2017-Oct-09 21:58N 40°41' W 074°05'0 0.0
2017-Oct-09 21:28N 40°41' W 074°05'0 0.0
2017-Oct-09 20:58N 40°41' W 074°05'0 0.0
2017-Oct-09 20:25N 40°41' W 074°05'0 0.0
2017-Oct-09 19:58N 40°41' W 074°05'0 0.0
2017-Oct-09 19:28N 40°41' W 074°05'0 0.0
2017-Oct-09 18:58N 40°41' W 074°05'0 0.0
2017-Oct-09 18:28N 40°41' W 074°05'0 0.0
2017-Oct-09 17:58N 40°41' W 074°05'0 0.0
2017-Oct-09 17:28N 40°41' W 074°05'0 0.0
2017-Oct-09 16:58N 40°41' W 074°05'0 0.0
2017-Oct-09 16:19N 40°41' W 074°05'0 0.0
2017-Oct-09 15:58N 40°41' W 074°05'0 0.0
2017-Oct-09 15:28N 40°41' W 074°05'0 0.1
2017-Oct-09 14:59N 40°41' W 074°05'0 0.1
2017-Oct-09 14:29N 40°41' W 074°05'1 2.4
2017-Oct-09 14:00N 40°41' W 074°03'1 2.1
2017-Oct-09 13:28N 40°42' W 074°03'0 0.0
2017-Oct-09 12:58N 40°42' W 074°03'0 0.0
2017-Oct-09 12:28N 40°42' W 074°03'0 0.0
2017-Oct-09 11:58N 40°42' W 074°03'1 2.6
2017-Oct-09 11:31N 40°41' W 074°04'1 1.7
2017-Oct-09 11:00N 40°41' W 074°05'0 0.0
2017-Oct-09 10:25N 40°41' W 074°05'0 0.0
2017-Oct-09 09:55N 40°41' W 074°05'0 0.0
2017-Oct-09 09:28N 40°41' W 074°05'0 0.0
2017-Oct-09 08:55N 40°41' W 074°05'0 0.0
2017-Oct-09 08:28N 40°41' W 074°05'0 0.0
2017-Oct-09 07:58N 40°41' W 074°05'0 0.0
2017-Oct-09 07:28N 40°41' W 074°05'0 0.0
2017-Oct-09 06:58N 40°41' W 074°05'0 0.0
2017-Oct-09 06:28N 40°41' W 074°05'0 0.0
2017-Oct-09 05:58N 40°41' W 074°05'0 0.0
2017-Oct-09 05:28N 40°41' W 074°05'0 0.0
2017-Oct-09 04:58N 40°41' W 074°05'0 0.0
2017-Oct-09 04:28N 40°41' W 074°05'0 0.0
2017-Oct-09 03:49N 40°41' W 074°05'0 0.0
2017-Oct-09 03:28N 40°41' W 074°05'0 0.0
2017-Oct-09 02:58N 40°41' W 074°05'0 0.0
2017-Oct-09 02:28N 40°41' W 074°05'0 0.0
2017-Oct-09 01:58N 40°41' W 074°05'0 0.0
2017-Oct-09 01:28N 40°41' W 074°05'0 0.0
2017-Oct-09 00:58N 40°41' W 074°05'0 0.0
2017-Oct-09 00:25N 40°41' W 074°05'0 0.0
2017-Oct-08 23:58N 40°41' W 074°05'0 0.0
2017-Oct-08 23:28N 40°41' W 074°05'0 0.0
2017-Oct-08 22:55N 40°41' W 074°05'0 0.0
2017-Oct-08 22:28N 40°41' W 074°05'0 0.0
2017-Oct-08 21:58N 40°41' W 074°05'0 0.0
2017-Oct-08 21:25N 40°41' W 074°05'0 0.0
2017-Oct-08 20:55N 40°41' W 074°05'0 0.0
2017-Oct-08 20:25N 40°41' W 074°05'0 0.0
2017-Oct-08 19:58N 40°41' W 074°05'0 0.0
2017-Oct-08 19:22N 40°41' W 074°05'0 0.0
2017-Oct-08 18:55N 40°41' W 074°05'0 0.0
2017-Oct-08 18:28N 40°41' W 074°05'0 0.0
2017-Oct-08 17:58N 40°41' W 074°05'0 0.0
2017-Oct-08 17:19N 40°41' W 074°05'0 0.0
2017-Oct-08 16:55N 40°41' W 074°05'0 0.0
2017-Oct-08 16:25N 40°41' W 074°05'0 0.0
2017-Oct-08 15:52N 40°41' W 074°05'0 0.0
2017-Oct-08 15:28N 40°41' W 074°05'0 0.0
2017-Oct-08 14:58N 40°41' W 074°05'0 0.0
2017-Oct-08 14:25N 40°41' W 074°05'0 0.0
2017-Oct-08 13:58N 40°41' W 074°05'0 0.0
2017-Oct-08 13:28N 40°41' W 074°05'0 0.0
2017-Oct-08 12:58N 40°41' W 074°05'0 0.0
2017-Oct-08 12:19N 40°41' W 074°05'0 0.0
2017-Oct-08 11:58N 40°41' W 074°05'0 0.0
2017-Oct-08 11:28N 40°41' W 074°05'0 0.0
2017-Oct-08 10:55N 40°41' W 074°05'0 0.0
2017-Oct-08 10:28N 40°41' W 074°05'0 0.0
2017-Oct-08 09:58N 40°41' W 074°05'0 0.0
2017-Oct-08 09:28N 40°41' W 074°05'0 0.0
2017-Oct-08 08:58N 40°41' W 074°05'0 0.0
2017-Oct-08 08:25N 40°41' W 074°05'0 0.0
2017-Oct-08 07:58N 40°41' W 074°05'0 0.0
2017-Oct-08 07:28N 40°41' W 074°05'0 0.0
2017-Oct-08 06:58N 40°41' W 074°05'0 0.0
2017-Oct-08 06:28N 40°41' W 074°05'0 0.0
2017-Oct-08 05:58N 40°41' W 074°05'0 0.0
2017-Oct-08 05:28N 40°41' W 074°05'0 0.0
2017-Oct-08 04:58N 40°41' W 074°05'0 0.0
2017-Oct-08 04:28N 40°41' W 074°05'0 0.0
2017-Oct-08 03:37N 40°41' W 074°05'0 0.0
2017-Oct-08 03:28N 40°41' W 074°05'0 0.0
2017-Oct-08 02:58N 40°41' W 074°05'0 0.0
2017-Oct-08 02:28N 40°41' W 074°05'0 0.0
2017-Oct-08 01:58N 40°41' W 074°05'0 0.0
2017-Oct-08 01:25N 40°41' W 074°05'0 0.0
2017-Oct-08 00:58N 40°41' W 074°05'0 0.0
2017-Oct-08 00:22N 40°41' W 074°05'0 0.0
2017-Oct-07 23:52N 40°41' W 074°05'0 0.0
2017-Oct-07 23:28N 40°41' W 074°05'0 0.0
2017-Oct-07 22:55N 40°41' W 074°05'0 0.0
2017-Oct-07 22:25N 40°41' W 074°05'0 0.0
2017-Oct-07 21:58N 40°41' W 074°05'1 3.2
2017-Oct-07 21:30N 40°40' W 074°03'2 4.1
2017-Oct-07 21:00N 40°40' W 074°01'1 2.9
2017-Oct-07 20:30N 40°40' W 074°02'2 3.9
2017-Oct-07 20:00N 40°41' W 074°04'0 0.3
2017-Oct-07 19:28N 40°41' W 074°05'0 0.0
2017-Oct-07 18:52N 40°41' W 074°05'0 0.0
2017-Oct-07 18:25N 40°41' W 074°05'0 0.0
2017-Oct-07 17:58N 40°41' W 074°05'0 0.0
2017-Oct-07 17:28N 40°41' W 074°05'0 0.0
2017-Oct-07 16:58N 40°41' W 074°05'0 0.0
2017-Oct-07 16:28N 40°41' W 074°05'0 0.3
2017-Oct-07 15:59N 40°41' W 074°05'2 4.5
2017-Oct-07 15:30N 40°40' W 074°02'1 2.3
2017-Oct-07 14:59N 40°40' W 074°01'2 3.2
2017-Oct-07 14:30N 40°41' W 074°01'2 4.9
2017-Oct-07 14:00N 40°43' W 073°58'2 3.4
2017-Oct-07 13:30N 40°44' W 073°57'  
Track history (hours):
 
Tides and Currents Weather Stations Pressure Air Temp Water Temp Dewpoint Dewpoint Depression Visibility Wind Speed Wind Dir Waves Ship Positions

Sea Lion

Owner: SEA WOLF MARINE INC, Bayonne, NJ. More information available from US FCC via Universal Licensing System and Coast Guard Vessel Documentation Center.

Last reported at 2017-Oct-17 13:00 UTC. Time now 2017-Oct-17 13:10 UTC.
Position N 40°42' W 074°03'.

Length 20 m; draft 3 m.

Type: Towing. MMSI: 367000930.

Date/timePositionNaut miles runAvg speedWind from/ knotsBaromVisibWave heightAir tempDewpointWater temp
2017-Oct-17 13:00N 40°42' W 074°03'0 0.0
2017-Oct-17 12:29N 40°42' W 074°03'0 0.0
2017-Oct-17 11:59N 40°42' W 074°03'1 2.6
2017-Oct-17 11:30N 40°41' W 074°04'1 1.2
2017-Oct-17 11:00N 40°41' W 074°05'0 0.0
2017-Oct-17 10:30N 40°41' W 074°05'0 0.1
2017-Oct-17 10:00N 40°41' W 074°05'0 0.0
2017-Oct-17 09:30N 40°41' W 074°05'0 0.0
2017-Oct-17 09:00N 40°41' W 074°05'0 0.0
2017-Oct-17 08:30N 40°41' W 074°05'0 0.0
2017-Oct-17 08:00N 40°41' W 074°05'0 0.0
2017-Oct-17 07:30N 40°41' W 074°05'0 0.0
2017-Oct-17 07:00N 40°41' W 074°05'0 0.0
2017-Oct-17 06:30N 40°41' W 074°05'0 0.0
2017-Oct-17 06:00N 40°41' W 074°05'0 0.0
2017-Oct-17 05:30N 40°41' W 074°05'0 0.0
2017-Oct-17 05:00N 40°41' W 074°05'0 0.0
2017-Oct-17 04:30N 40°41' W 074°05'0 0.0
2017-Oct-17 04:00N 40°41' W 074°05'0 0.0
2017-Oct-17 03:30N 40°41' W 074°05'0 0.0
2017-Oct-17 03:00N 40°41' W 074°05'0 0.0
2017-Oct-17 02:30N 40°41' W 074°05'0 0.0
2017-Oct-17 02:00N 40°41' W 074°05'0 0.0
2017-Oct-17 01:30N 40°41' W 074°05'0 0.0
2017-Oct-17 01:00N 40°41' W 074°05'0 0.0
2017-Oct-17 00:30N 40°41' W 074°05'0 0.0
2017-Oct-17 00:00N 40°41' W 074°05'0 0.0
2017-Oct-16 23:30N 40°41' W 074°05'0 0.0
2017-Oct-16 23:00N 40°41' W 074°05'0 0.0
2017-Oct-16 22:30N 40°41' W 074°05'0 0.3
2017-Oct-16 21:59N 40°41' W 074°04'2 4.5
2017-Oct-16 21:30N 40°40' W 074°02'1 2.1
2017-Oct-16 21:00N 40°40' W 074°01'0 0.1
2017-Oct-16 20:30N 40°40' W 074°01'3 6.4
2017-Oct-16 20:00N 40°41' W 074°04'0 0.4
2017-Oct-16 19:29N 40°41' W 074°05'0 0.0
2017-Oct-16 18:56N 40°41' W 074°05'0 0.0
2017-Oct-16 18:29N 40°41' W 074°05'0 0.0
2017-Oct-16 17:59N 40°41' W 074°05'0 0.0
2017-Oct-16 17:29N 40°41' W 074°05'0 0.0
2017-Oct-16 16:59N 40°41' W 074°05'0 0.0
2017-Oct-16 16:29N 40°41' W 074°05'0 0.2
2017-Oct-16 15:59N 40°41' W 074°05'0 0.0
2017-Oct-16 15:30N 40°41' W 074°05'0 0.1
2017-Oct-16 14:55N 40°41' W 074°05'0 0.0
2017-Oct-16 13:59N 40°41' W 074°05'0 0.0
2017-Oct-16 13:29N 40°41' W 074°05'0 0.0
2017-Oct-16 12:56N 40°41' W 074°05'0 0.0
2017-Oct-16 12:23N 40°41' W 074°05'0 0.0
2017-Oct-16 11:59N 40°41' W 074°05'0 0.0
2017-Oct-16 11:29N 40°41' W 074°05'0 0.0
2017-Oct-16 10:59N 40°41' W 074°05'0 0.0
2017-Oct-16 10:29N 40°41' W 074°05'0 0.0
2017-Oct-16 09:59N 40°41' W 074°05'0 0.0
2017-Oct-16 09:29N 40°41' W 074°05'0 0.0
2017-Oct-16 08:59N 40°41' W 074°05'0 0.0
2017-Oct-16 08:26N 40°41' W 074°05'0 0.0
2017-Oct-16 07:59N 40°41' W 074°05'0 0.0
2017-Oct-16 07:29N 40°41' W 074°05'0 0.0
2017-Oct-16 06:59N 40°41' W 074°05'0 0.0
2017-Oct-16 06:29N 40°41' W 074°05'0 0.0
2017-Oct-16 05:59N 40°41' W 074°05'0 0.0
2017-Oct-16 05:29N 40°41' W 074°05'0 0.0
2017-Oct-16 04:59N 40°41' W 074°05'0 0.0
2017-Oct-16 04:29N 40°41' W 074°05'0 0.0
2017-Oct-16 03:59N 40°41' W 074°05'0 0.0
2017-Oct-16 03:29N 40°41' W 074°05'0 0.0
2017-Oct-16 02:59N 40°41' W 074°05'0 0.0
2017-Oct-16 02:29N 40°41' W 074°05'0 0.0
2017-Oct-16 01:59N 40°41' W 074°05'0 0.0
2017-Oct-16 01:29N 40°41' W 074°05'0 0.0
2017-Oct-16 00:59N 40°41' W 074°05'0 0.0
2017-Oct-16 00:29N 40°41' W 074°05'0 0.0
2017-Oct-15 23:59N 40°41' W 074°05'0 0.0
2017-Oct-15 23:26N 40°41' W 074°05'0 0.0
2017-Oct-15 22:59N 40°41' W 074°05'0 0.0
2017-Oct-15 22:29N 40°41' W 074°05'0 0.0
2017-Oct-15 21:59N 40°41' W 074°05'0 0.0
2017-Oct-15 21:30N 40°41' W 074°05'0 0.0
2017-Oct-15 21:00N 40°41' W 074°05'0 0.0
2017-Oct-15 20:24N 40°41' W 074°05'0 0.0
2017-Oct-15 20:00N 40°41' W 074°05'0 0.0
2017-Oct-15 19:30N 40°41' W 074°05'0 0.0
2017-Oct-15 19:00N 40°41' W 074°05'0 0.0
2017-Oct-15 18:30N 40°41' W 074°05'0 0.0
2017-Oct-15 18:00N 40°41' W 074°05'0 0.0
2017-Oct-15 17:30N 40°41' W 074°05'0 0.0
2017-Oct-15 17:00N 40°41' W 074°05'0 0.0
2017-Oct-15 16:30N 40°41' W 074°05'0 0.0
2017-Oct-15 16:00N 40°41' W 074°05'0 0.0
2017-Oct-15 15:30N 40°41' W 074°05'0 0.0
2017-Oct-15 15:00N 40°41' W 074°05'0 0.0
2017-Oct-15 14:00N 40°41' W 074°05'0 0.0
2017-Oct-15 13:27N 40°41' W 074°05'0 0.0
2017-Oct-15 12:58N 40°41' W 074°05'0 0.0
2017-Oct-15 12:30N 40°41' W 074°05'0 0.0
2017-Oct-15 12:00N 40°41' W 074°05'0 0.0
2017-Oct-15 11:30N 40°41' W 074°05'0 0.0
2017-Oct-15 11:00N 40°41' W 074°05'0 0.0
2017-Oct-15 10:30N 40°41' W 074°05'0 0.0
2017-Oct-15 10:00N 40°41' W 074°05'0 0.0
2017-Oct-15 09:30N 40°41' W 074°05'0 0.0
2017-Oct-15 09:00N 40°41' W 074°05'0 0.0
2017-Oct-15 08:30N 40°41' W 074°05'0 0.0
2017-Oct-15 08:00N 40°41' W 074°05'0 0.0
2017-Oct-15 07:30N 40°41' W 074°05'0 0.0
2017-Oct-15 07:00N 40°41' W 074°05'0 0.0
2017-Oct-15 06:30N 40°41' W 074°05'0 0.0
2017-Oct-15 06:00N 40°41' W 074°05'0 0.0
2017-Oct-15 05:30N 40°41' W 074°05'0 0.0
2017-Oct-15 05:00N 40°41' W 074°05'0 0.0
2017-Oct-15 04:30N 40°41' W 074°05'0 0.0
2017-Oct-15 04:00N 40°41' W 074°05'0 0.0
2017-Oct-15 03:30N 40°41' W 074°05'0 0.0
2017-Oct-15 03:00N 40°41' W 074°05'0 0.0
2017-Oct-15 02:30N 40°41' W 074°05'0 0.0
2017-Oct-15 02:00N 40°41' W 074°05'0 0.0
2017-Oct-15 01:30N 40°41' W 074°05'0 0.0
2017-Oct-15 01:00N 40°41' W 074°05'0 0.0
2017-Oct-15 00:27N 40°41' W 074°05'0 0.0
2017-Oct-15 00:00N 40°41' W 074°05'0 0.0
2017-Oct-14 23:30N 40°41' W 074°05'0 0.0
2017-Oct-14 23:00N 40°41' W 074°05'0 0.0
2017-Oct-14 22:30N 40°41' W 074°05'0 0.0
2017-Oct-14 21:57N 40°41' W 074°05'0 0.0
2017-Oct-14 21:30N 40°41' W 074°05'0 0.0
2017-Oct-14 21:00N 40°41' W 074°05'0 0.0
2017-Oct-14 20:30N 40°41' W 074°05'0 0.0
2017-Oct-14 20:01N 40°41' W 074°05'0 0.6
2017-Oct-14 19:30N 40°41' W 074°04'3 5.0
2017-Oct-14 19:00N 40°39' W 074°06'3 5.9
2017-Oct-14 18:30N 40°39' W 074°10'3 6.1
2017-Oct-14 18:00N 40°36' W 074°12'0 0.2
2017-Oct-14 17:12N 40°36' W 074°12'2 8.9
2017-Oct-14 17:00N 40°38' W 074°12'4 7.9
2017-Oct-14 16:29N 40°39' W 074°07'3 5.5
2017-Oct-14 15:59N 40°41' W 074°05'0 0.0
2017-Oct-14 15:29N 40°41' W 074°05'0 0.0
2017-Oct-14 14:53N 40°41' W 074°05'0 0.0
2017-Oct-14 14:29N 40°41' W 074°05'0 0.0
2017-Oct-14 13:56N 40°41' W 074°05'0 0.0
2017-Oct-14 13:29N 40°41' W 074°05'0 0.0
2017-Oct-14 12:56N 40°41' W 074°05'0 0.0
2017-Oct-14 12:29N 40°41' W 074°05'0 0.0
2017-Oct-14 11:53N 40°41' W 074°05'0 0.0
2017-Oct-14 11:29N 40°41' W 074°05'0 0.0
2017-Oct-14 10:59N 40°41' W 074°05'0 0.0
2017-Oct-14 10:29N 40°41' W 074°05'0 0.0
2017-Oct-14 09:47N 40°41' W 074°05'0 0.0
2017-Oct-14 09:29N 40°41' W 074°05'0 0.0
2017-Oct-14 08:56N 40°41' W 074°05'0 0.0
2017-Oct-14 08:26N 40°41' W 074°05'0 0.0
2017-Oct-14 07:53N 40°41' W 074°05'0 0.0
2017-Oct-14 07:29N 40°41' W 074°05'0 0.0
2017-Oct-14 06:59N 40°41' W 074°05'0 0.0
2017-Oct-14 06:17N 40°41' W 074°05'0 0.0
2017-Oct-14 05:59N 40°41' W 074°05'0 0.0
2017-Oct-14 05:14N 40°41' W 074°05'0 0.0
2017-Oct-14 04:59N 40°41' W 074°05'0 0.0
2017-Oct-14 04:29N 40°41' W 074°05'0 0.0
2017-Oct-14 03:56N 40°41' W 074°05'0 0.0
2017-Oct-14 03:29N 40°41' W 074°05'0 0.0
2017-Oct-14 02:59N 40°41' W 074°05'0 0.0
2017-Oct-14 02:29N 40°41' W 074°05'0 0.0
2017-Oct-14 01:56N 40°41' W 074°05'0 0.0
2017-Oct-14 01:29N 40°41' W 074°05'0 0.0
2017-Oct-14 00:59N 40°41' W 074°05'0 0.4
2017-Oct-14 00:30N 40°41' W 074°04'1 1.1
2017-Oct-14 00:00N 40°41' W 074°04'3 5.2
2017-Oct-13 23:30N 40°40' W 074°01'4 7.1
2017-Oct-13 23:00N 40°43' W 073°58'2 3.6
2017-Oct-13 22:28N 40°44' W 073°57'0 0.6
2017-Oct-13 22:00N 40°44' W 073°57'3 5.1
2017-Oct-13 21:30N 40°42' W 073°59'3 6.8
2017-Oct-13 21:00N 40°40' W 074°03'2 3.1
2017-Oct-13 20:29N 40°41' W 074°05'0 0.0
2017-Oct-13 19:56N 40°41' W 074°05'0 0.0
2017-Oct-13 19:26N 40°41' W 074°05'0 0.0
2017-Oct-13 18:56N 40°41' W 074°05'0 0.0
2017-Oct-13 18:23N 40°41' W 074°05'0 0.0
2017-Oct-13 17:56N 40°41' W 074°05'0 0.0
2017-Oct-13 17:29N 40°41' W 074°05'0 0.0
2017-Oct-13 16:59N 40°41' W 074°05'0 0.0
2017-Oct-13 16:29N 40°41' W 074°05'0 0.0
2017-Oct-13 15:59N 40°41' W 074°05'0 0.0
2017-Oct-13 15:26N 40°41' W 074°05'0 0.0
2017-Oct-13 14:59N 40°41' W 074°05'0 0.0
2017-Oct-13 14:29N 40°41' W 074°05'0 0.4
2017-Oct-13 14:00N 40°41' W 074°04'1 2.6
2017-Oct-13 13:29N 40°42' W 074°03'0 0.0
2017-Oct-13 12:59N 40°42' W 074°03'0 0.0
2017-Oct-13 12:23N 40°42' W 074°03'0 0.0
2017-Oct-13 11:59N 40°42' W 074°03'1 2.4
2017-Oct-13 11:30N 40°40' W 074°04'1 2.1
2017-Oct-13 10:58N 40°41' W 074°05'0 0.0
2017-Oct-13 10:30N 40°41' W 074°05'0 0.0
2017-Oct-13 09:58N 40°41' W 074°05'0 0.0
2017-Oct-13 09:28N 40°41' W 074°05'0 0.0
2017-Oct-13 08:40N 40°41' W 074°05'0 0.0
2017-Oct-13 08:25N 40°41' W 074°05'0 0.0
2017-Oct-13 07:55N 40°41' W 074°05'0 0.0
2017-Oct-13 07:28N 40°41' W 074°05'0 0.0
2017-Oct-13 06:49N 40°41' W 074°05'0 0.0
2017-Oct-13 06:28N 40°41' W 074°05'0 0.0
2017-Oct-13 05:58N 40°41' W 074°05'0 0.0
2017-Oct-13 05:28N 40°41' W 074°05'0 0.0
2017-Oct-13 04:52N 40°41' W 074°05'0 0.0
2017-Oct-13 04:28N 40°41' W 074°05'0 0.0
2017-Oct-13 03:58N 40°41' W 074°05'0 0.0
2017-Oct-13 03:19N 40°41' W 074°05'0 0.0
2017-Oct-13 02:58N 40°41' W 074°05'0 0.0
2017-Oct-13 02:28N 40°41' W 074°05'0 0.0
2017-Oct-13 01:55N 40°41' W 074°05'0 0.0
2017-Oct-13 01:28N 40°41' W 074°05'0 0.0
2017-Oct-13 00:43N 40°41' W 074°05'0 0.8
2017-Oct-13 00:30N 40°41' W 074°04'3 5.8
2017-Oct-13 00:00N 40°42' W 074°01'4 7.6
2017-Oct-12 23:30N 40°44' W 073°57'0 0.0
2017-Oct-12 23:00N 40°44' W 073°57'2 4.4
2017-Oct-12 22:30N 40°43' W 073°59'2 4.7
2017-Oct-12 22:00N 40°41' W 074°01'3 4.7
2017-Oct-12 21:26N 40°41' W 074°05'0 0.3
2017-Oct-12 20:56N 40°41' W 074°05'0 0.0
2017-Oct-12 20:23N 40°41' W 074°05'0 0.0
2017-Oct-12 19:59N 40°41' W 074°05'0 0.0
2017-Oct-12 19:20N 40°41' W 074°05'0 0.0
2017-Oct-12 18:59N 40°41' W 074°05'0 0.0
2017-Oct-12 18:29N 40°41' W 074°05'0 0.0
2017-Oct-12 17:50N 40°41' W 074°05'0 0.0
2017-Oct-12 17:26N 40°41' W 074°05'0 0.0
2017-Oct-12 16:59N 40°41' W 074°05'0 0.0
2017-Oct-12 16:29N 40°41' W 074°05'0 0.0
2017-Oct-12 15:56N 40°41' W 074°05'0 0.0
2017-Oct-12 15:29N 40°41' W 074°05'0 0.0
2017-Oct-12 14:53N 40°41' W 074°05'0 0.0
2017-Oct-12 14:29N 40°41' W 074°05'2 3.1
2017-Oct-12 14:00N 40°41' W 074°03'0 0.7
2017-Oct-12 13:24N 40°42' W 074°03'0 0.0
2017-Oct-12 13:00N 40°42' W 074°03'0 0.0
2017-Oct-12 12:30N 40°42' W 074°03'0 0.0
2017-Oct-12 12:00N 40°42' W 074°03'1 2.6
2017-Oct-12 11:31N 40°41' W 074°04'1 1.1
2017-Oct-12 10:58N 40°41' W 074°05'0 0.0
2017-Oct-12 10:28N 40°41' W 074°05'0 0.0
2017-Oct-12 09:58N 40°41' W 074°05'0 0.0
2017-Oct-12 09:28N 40°41' W 074°05'0 0.0
2017-Oct-12 08:58N 40°41' W 074°05'0 0.0
2017-Oct-12 08:28N 40°41' W 074°05'0 0.0
2017-Oct-12 07:58N 40°41' W 074°05'0 0.0
2017-Oct-12 07:28N 40°41' W 074°05'0 0.0
2017-Oct-12 06:58N 40°41' W 074°05'0 0.0
2017-Oct-12 06:28N 40°41' W 074°05'0 0.0
2017-Oct-12 05:58N 40°41' W 074°05'0 0.0
2017-Oct-12 05:28N 40°41' W 074°05'0 0.0
2017-Oct-12 04:58N 40°41' W 074°05'0 0.0
2017-Oct-12 04:28N 40°41' W 074°05'0 0.0
2017-Oct-12 03:55N 40°41' W 074°05'0 0.0
2017-Oct-12 03:28N 40°41' W 074°05'0 0.0
2017-Oct-12 02:58N 40°41' W 074°05'0 0.0
2017-Oct-12 02:28N 40°41' W 074°05'0 0.0
2017-Oct-12 01:55N 40°41' W 074°05'0 0.0
2017-Oct-12 01:28N 40°41' W 074°05'0 0.0
2017-Oct-12 00:58N 40°41' W 074°05'0 0.0
2017-Oct-12 00:25N 40°41' W 074°05'0 0.0
2017-Oct-11 23:55N 40°41' W 074°05'0 0.0
2017-Oct-11 23:28N 40°41' W 074°05'0 0.0
2017-Oct-11 22:58N 40°41' W 074°05'0 0.0
2017-Oct-11 22:22N 40°41' W 074°05'0 0.0
2017-Oct-11 21:46N 40°41' W 074°05'0 0.0
2017-Oct-11 21:28N 40°41' W 074°05'0 0.0
2017-Oct-11 20:52N 40°41' W 074°05'0 0.0
2017-Oct-11 20:28N 40°41' W 074°05'0 0.0
2017-Oct-11 19:58N 40°41' W 074°05'0 0.0
2017-Oct-11 19:28N 40°41' W 074°05'0 0.0
2017-Oct-11 18:58N 40°41' W 074°05'0 0.0
2017-Oct-11 18:22N 40°41' W 074°05'0 0.0
2017-Oct-11 17:55N 40°41' W 074°05'0 0.0
2017-Oct-11 17:28N 40°41' W 074°05'0 0.0
2017-Oct-11 16:55N 40°41' W 074°05'0 0.0
2017-Oct-10 23:58N 40°41' W 074°05'0 0.0
2017-Oct-10 23:28N 40°41' W 074°05'0 0.0
2017-Oct-10 22:55N 40°41' W 074°05'0 0.0
2017-Oct-10 22:28N 40°41' W 074°05'0 0.0
2017-Oct-10 21:58N 40°41' W 074°05'0 0.0
2017-Oct-10 21:22N 40°41' W 074°05'0 0.0
2017-Oct-10 20:58N 40°41' W 074°05'0 0.0
2017-Oct-10 20:28N 40°41' W 074°05'0 0.0
2017-Oct-10 19:58N 40°41' W 074°05'0 0.0
2017-Oct-10 19:28N 40°41' W 074°05'0 0.0
2017-Oct-10 18:58N 40°41' W 074°05'0 0.0
2017-Oct-10 18:25N 40°41' W 074°05'0 0.0
2017-Oct-10 17:58N 40°41' W 074°05'0 0.0
2017-Oct-10 17:28N 40°41' W 074°05'0 0.0
2017-Oct-10 16:58N 40°41' W 074°05'0 0.3
2017-Oct-10 16:31N 40°41' W 074°04'3 5.2
2017-Oct-10 16:00N 40°40' W 074°01'1 1.4
2017-Oct-10 15:30N 40°40' W 074°01'1 2.9
2017-Oct-10 15:00N 40°40' W 074°02'1 1.5
2017-Oct-10 14:00N 40°42' W 074°02'0 0.5
2017-Oct-10 13:29N 40°42' W 074°03'0 0.0
2017-Oct-10 12:59N 40°42' W 074°03'0 0.5
2017-Oct-10 12:30N 40°42' W 074°02'2 3.2
2017-Oct-10 11:58N 40°41' W 074°05'0 0.0
2017-Oct-10 11:28N 40°41' W 074°05'0 0.0
2017-Oct-10 10:58N 40°41' W 074°05'0 0.0
2017-Oct-10 10:28N 40°41' W 074°05'0 0.0
2017-Oct-10 09:55N 40°41' W 074°05'0 0.0
2017-Oct-10 09:28N 40°41' W 074°05'0 0.0
2017-Oct-10 08:58N 40°41' W 074°05'0 0.0
2017-Oct-10 08:28N 40°41' W 074°05'0 0.0
2017-Oct-10 07:58N 40°41' W 074°05'0 0.0
2017-Oct-10 07:28N 40°41' W 074°05'0 0.0
2017-Oct-10 06:58N 40°41' W 074°05'0 0.0
2017-Oct-10 06:25N 40°41' W 074°05'0 0.0
2017-Oct-10 05:58N 40°41' W 074°05'0 0.0
2017-Oct-10 05:25N 40°41' W 074°05'0 0.0
2017-Oct-10 04:58N 40°41' W 074°05'0 0.0
2017-Oct-10 04:28N 40°41' W 074°05'0 0.0
2017-Oct-10 03:55N 40°41' W 074°05'0 0.0
2017-Oct-10 03:25N 40°41' W 074°05'0 0.0
2017-Oct-10 02:58N 40°41' W 074°05'0 0.0
2017-Oct-10 02:28N 40°41' W 074°05'0 0.0
2017-Oct-10 01:58N 40°41' W 074°05'0 0.0
2017-Oct-10 01:28N 40°41' W 074°05'0 0.0
2017-Oct-10 00:55N 40°41' W 074°05'0 0.0
2017-Oct-10 00:28N 40°41' W 074°05'0 0.0
2017-Oct-09 23:58N 40°41' W 074°05'0 0.0
2017-Oct-09 23:22N 40°41' W 074°05'0 0.0
2017-Oct-09 22:58N 40°41' W 074°05'0 0.0
2017-Oct-09 22:28N 40°41' W 074°05'0 0.0
2017-Oct-09 21:58N 40°41' W 074°05'0 0.0
2017-Oct-09 21:28N 40°41' W 074°05'0 0.0
2017-Oct-09 20:58N 40°41' W 074°05'0 0.0
2017-Oct-09 20:25N 40°41' W 074°05'0 0.0
2017-Oct-09 19:58N 40°41' W 074°05'0 0.0
2017-Oct-09 19:28N 40°41' W 074°05'0 0.0
2017-Oct-09 18:58N 40°41' W 074°05'0 0.0
2017-Oct-09 18:28N 40°41' W 074°05'0 0.0
2017-Oct-09 17:58N 40°41' W 074°05'0 0.0
2017-Oct-09 17:28N 40°41' W 074°05'0 0.0
2017-Oct-09 16:58N 40°41' W 074°05'0 0.0
2017-Oct-09 16:19N 40°41' W 074°05'0 0.0
2017-Oct-09 15:58N 40°41' W 074°05'0 0.0
2017-Oct-09 15:28N 40°41' W 074°05'0 0.1
2017-Oct-09 14:59N 40°41' W 074°05'0 0.1
2017-Oct-09 14:29N 40°41' W 074°05'1 2.4
2017-Oct-09 14:00N 40°41' W 074°03'1 2.1
2017-Oct-09 13:28N 40°42' W 074°03'0 0.0
2017-Oct-09 12:58N 40°42' W 074°03'0 0.0
2017-Oct-09 12:28N 40°42' W 074°03'0 0.0
2017-Oct-09 11:58N 40°42' W 074°03'1 2.6
2017-Oct-09 11:31N 40°41' W 074°04'1 1.7
2017-Oct-09 11:00N 40°41' W 074°05'0 0.0
2017-Oct-09 10:25N 40°41' W 074°05'0 0.0
2017-Oct-09 09:55N 40°41' W 074°05'0 0.0
2017-Oct-09 09:28N 40°41' W 074°05'0 0.0
2017-Oct-09 08:55N 40°41' W 074°05'0 0.0
2017-Oct-09 08:28N 40°41' W 074°05'0 0.0
2017-Oct-09 07:58N 40°41' W 074°05'0 0.0
2017-Oct-09 07:28N 40°41' W 074°05'0 0.0
2017-Oct-09 06:58N 40°41' W 074°05'0 0.0
2017-Oct-09 06:28N 40°41' W 074°05'0 0.0
2017-Oct-09 05:58N 40°41' W 074°05'0 0.0
2017-Oct-09 05:28N 40°41' W 074°05'0 0.0
2017-Oct-09 04:58N 40°41' W 074°05'0 0.0
2017-Oct-09 04:28N 40°41' W 074°05'0 0.0
2017-Oct-09 03:49N 40°41' W 074°05'0 0.0
2017-Oct-09 03:28N 40°41' W 074°05'0 0.0
2017-Oct-09 02:58N 40°41' W 074°05'0 0.0
2017-Oct-09 02:28N 40°41' W 074°05'0 0.0
2017-Oct-09 01:58N 40°41' W 074°05'0 0.0
2017-Oct-09 01:28N 40°41' W 074°05'0 0.0
2017-Oct-09 00:58N 40°41' W 074°05'0 0.0
2017-Oct-09 00:25N 40°41' W 074°05'0 0.0
2017-Oct-08 23:58N 40°41' W 074°05'0 0.0
2017-Oct-08 23:28N 40°41' W 074°05'0 0.0
2017-Oct-08 22:55N 40°41' W 074°05'0 0.0
2017-Oct-08 22:28N 40°41' W 074°05'0 0.0
2017-Oct-08 21:58N 40°41' W 074°05'0 0.0
2017-Oct-08 21:25N 40°41' W 074°05'0 0.0
2017-Oct-08 20:55N 40°41' W 074°05'0 0.0
2017-Oct-08 20:25N 40°41' W 074°05'0 0.0
2017-Oct-08 19:58N 40°41' W 074°05'0 0.0
2017-Oct-08 19:22N 40°41' W 074°05'0 0.0
2017-Oct-08 18:55N 40°41' W 074°05'0 0.0
2017-Oct-08 18:28N 40°41' W 074°05'0 0.0
2017-Oct-08 17:58N 40°41' W 074°05'0 0.0
2017-Oct-08 17:19N 40°41' W 074°05'0 0.0
2017-Oct-08 16:55N 40°41' W 074°05'0 0.0
2017-Oct-08 16:25N 40°41' W 074°05'0 0.0
2017-Oct-08 15:52N 40°41' W 074°05'0 0.0
2017-Oct-08 15:28N 40°41' W 074°05'0 0.0
2017-Oct-08 14:58N 40°41' W 074°05'0 0.0
2017-Oct-08 14:25N 40°41' W 074°05'0 0.0
2017-Oct-08 13:58N 40°41' W 074°05'0 0.0
2017-Oct-08 13:28N 40°41' W 074°05'0 0.0
2017-Oct-08 12:58N 40°41' W 074°05'0 0.0
2017-Oct-08 12:19N 40°41' W 074°05'0 0.0
2017-Oct-08 11:58N 40°41' W 074°05'0 0.0
2017-Oct-08 11:28N 40°41' W 074°05'0 0.0
2017-Oct-08 10:55N 40°41' W 074°05'0 0.0
2017-Oct-08 10:28N 40°41' W 074°05'0 0.0
2017-Oct-08 09:58N 40°41' W 074°05'0 0.0
2017-Oct-08 09:28N 40°41' W 074°05'0 0.0
2017-Oct-08 08:58N 40°41' W 074°05'0 0.0
2017-Oct-08 08:25N 40°41' W 074°05'0 0.0
2017-Oct-08 07:58N 40°41' W 074°05'0 0.0
2017-Oct-08 07:28N 40°41' W 074°05'0 0.0
2017-Oct-08 06:58N 40°41' W 074°05'0 0.0
2017-Oct-08 06:28N 40°41' W 074°05'0 0.0
2017-Oct-08 05:58N 40°41' W 074°05'0 0.0
2017-Oct-08 05:28N 40°41' W 074°05'0 0.0
2017-Oct-08 04:58N 40°41' W 074°05'0 0.0
2017-Oct-08 04:28N 40°41' W 074°05'0 0.0
2017-Oct-08 03:37N 40°41' W 074°05'0 0.0
2017-Oct-08 03:28N 40°41' W 074°05'0 0.0
2017-Oct-08 02:58N 40°41' W 074°05'0 0.0
2017-Oct-08 02:28N 40°41' W 074°05'0 0.0
2017-Oct-08 01:58N 40°41' W 074°05'0 0.0
2017-Oct-08 01:25N 40°41' W 074°05'0 0.0
2017-Oct-08 00:58N 40°41' W 074°05'0 0.0
2017-Oct-08 00:22N 40°41' W 074°05'0 0.0
2017-Oct-07 23:52N 40°41' W 074°05'0 0.0
2017-Oct-07 23:28N 40°41' W 074°05'0 0.0
2017-Oct-07 22:55N 40°41' W 074°05'0 0.0
2017-Oct-07 22:25N 40°41' W 074°05'0 0.0
2017-Oct-07 21:58N 40°41' W 074°05'1 3.2
2017-Oct-07 21:30N 40°40' W 074°03'2 4.1
2017-Oct-07 21:00N 40°40' W 074°01'1 2.9
2017-Oct-07 20:30N 40°40' W 074°02'2 3.9
2017-Oct-07 20:00N 40°41' W 074°04'0 0.3
2017-Oct-07 19:28N 40°41' W 074°05'0 0.0
2017-Oct-07 18:52N 40°41' W 074°05'0 0.0
2017-Oct-07 18:25N 40°41' W 074°05'0 0.0
2017-Oct-07 17:58N 40°41' W 074°05'0 0.0
2017-Oct-07 17:28N 40°41' W 074°05'0 0.0
2017-Oct-07 16:58N 40°41' W 074°05'0 0.0
2017-Oct-07 16:28N 40°41' W 074°05'0 0.3
2017-Oct-07 15:59N 40°41' W 074°05'2 4.5
2017-Oct-07 15:30N 40°40' W 074°02'1 2.3
2017-Oct-07 14:59N 40°40' W 074°01'2 3.2
2017-Oct-07 14:30N 40°41' W 074°01'2 4.9
2017-Oct-07 14:00N 40°43' W 073°58'2 3.4
2017-Oct-07 13:30N 40°44' W 073°57'  

Dump ship's entire track history